createdAt,value
2023-05-10T00:00:36.624Z,17.07
2023-05-10T00:05:39.416Z,16.73
2023-05-10T00:10:43.665Z,16.76
2023-05-10T00:15:46.380Z,16.86
2023-05-10T00:20:49.785Z,16.57
2023-05-10T00:25:54.069Z,16.82
2023-05-10T00:30:56.891Z,16.68
2023-05-10T00:35:59.700Z,16.53
2023-05-10T00:41:05.106Z,16.57
2023-05-10T00:46:10.688Z,16.48
2023-05-10T00:51:15.277Z,16.37
2023-05-10T00:56:21.442Z,16.35
2023-05-10T01:01:24.290Z,16.62
2023-05-10T01:06:28.716Z,16.38
2023-05-10T01:11:32.925Z,16.48
2023-05-10T01:16:42.349Z,16.45
2023-05-10T01:21:55.205Z,16.53
2023-05-10T01:27:27.283Z,16.49
2023-05-10T01:32:37.928Z,16.54
2023-05-10T01:37:46.390Z,16.12
2023-05-10T01:42:53.669Z,16.09
2023-05-10T01:48:06.470Z,16.18
2023-05-10T01:53:12.135Z,16.23
2023-05-10T01:58:17.431Z,16.04
2023-05-10T02:03:24.182Z,16.21
2023-05-10T02:08:28.307Z,16.17
2023-05-10T02:13:34.129Z,16.33
2023-05-10T02:18:38.636Z,16.00
2023-05-10T02:23:42.125Z,16.18
2023-05-10T02:28:45.928Z,16.27
2023-05-10T02:33:51.001Z,16.25
2023-05-10T02:38:55.683Z,16.01
2023-05-10T02:44:03.613Z,15.91
2023-05-10T02:49:07.844Z,15.83
2023-05-10T02:54:14.556Z,15.64
2023-05-10T02:59:17.324Z,15.55
2023-05-10T03:04:21.581Z,15.67
2023-05-10T03:09:25.743Z,15.79
2023-05-10T03:14:44.293Z,15.87
2023-05-10T03:19:55.272Z,15.63
2023-05-10T03:25:00.486Z,15.72
2023-05-10T03:30:09.465Z,15.59
2023-05-10T03:35:15.252Z,15.76
2023-05-10T03:40:18.550Z,15.73
2023-05-10T03:45:21.771Z,15.30
2023-05-10T03:50:27.142Z,15.60
2023-05-10T03:55:30.498Z,15.41
2023-05-10T04:00:33.860Z,15.35
2023-05-10T04:05:38.741Z,15.63
2023-05-10T04:10:41.630Z,15.54
2023-05-10T04:15:44.711Z,15.47
2023-05-10T04:20:48.798Z,15.90
2023-05-10T04:25:52.008Z,15.36
2023-05-10T04:30:54.915Z,15.31
2023-05-10T04:36:00.974Z,15.70
2023-05-10T04:41:07.953Z,15.48
2023-05-10T04:46:10.834Z,15.68
2023-05-10T04:51:15.036Z,15.92
2023-05-10T04:56:18.049Z,15.82
2023-05-10T05:01:20.850Z,16.02
2023-05-10T05:06:25.892Z,16.01
2023-05-10T05:11:28.612Z,16.11
2023-05-10T05:16:33.049Z,16.61
2023-05-10T05:21:37.201Z,16.59
2023-05-10T05:26:39.938Z,16.35
2023-05-10T05:31:42.681Z,16.60
2023-05-10T05:36:47.125Z,16.78
2023-05-10T05:41:49.908Z,17.01
2023-05-10T05:46:52.701Z,16.94
2023-05-10T05:52:01.057Z,17.26
2023-05-10T05:57:03.859Z,17.89
2023-05-10T06:02:07.381Z,18.28
2023-05-10T06:07:11.535Z,17.80
2023-05-10T06:12:14.331Z,18.12
2023-05-10T06:17:17.305Z,18.57
2023-05-10T06:22:23.540Z,18.17
2023-05-10T06:27:26.893Z,18.49
2023-05-10T06:32:29.790Z,18.68
2023-05-10T06:37:34.178Z,18.95
2023-05-10T06:42:36.939Z,18.80
2023-05-10T06:47:39.910Z,19.27
2023-05-10T06:52:44.516Z,19.94
2023-05-10T06:57:47.228Z,20.74
2023-05-10T07:02:50.086Z,22.05
2023-05-10T07:07:54.260Z,23.41
2023-05-10T07:12:57.146Z,22.86
2023-05-10T07:18:00.175Z,22.63
2023-05-10T07:23:04.491Z,22.16
2023-05-10T07:28:07.312Z,22.15
2023-05-10T07:33:10.952Z,22.02
2023-05-10T07:38:16.249Z,22.26
2023-05-10T07:43:19.135Z,22.34
2023-05-10T07:48:21.938Z,21.58
2023-05-10T07:53:27.103Z,21.50
2023-05-10T07:58:30.048Z,21.84
2023-05-10T08:03:32.854Z,21.93
2023-05-10T08:08:37.032Z,21.49
2023-05-10T08:13:39.927Z,21.76
2023-05-10T08:18:42.818Z,21.55
2023-05-10T08:23:47.018Z,22.20
2023-05-10T08:28:49.864Z,21.77
2023-05-10T08:33:53.590Z,22.49
2023-05-10T08:38:57.824Z,22.81
2023-05-10T08:44:02.491Z,22.84
2023-05-10T08:49:06.609Z,22.59
2023-05-10T08:54:11.433Z,22.81
2023-05-10T08:59:15.153Z,23.11
2023-05-10T09:04:18.668Z,22.01
2023-05-10T09:09:23.750Z,22.15
2023-05-10T09:14:27.047Z,23.04
2023-05-10T09:19:30.177Z,21.62
2023-05-10T09:24:34.333Z,21.90
2023-05-10T09:29:44.831Z,21.72
2023-05-10T09:34:52.002Z,21.16
2023-05-10T09:45:02.880Z,21.93
2023-05-10T09:50:06.631Z,21.15
2023-05-10T09:55:11.616Z,21.53
2023-05-10T10:00:21.041Z,21.05
2023-05-10T10:05:30.383Z,20.63
2023-05-10T10:10:35.824Z,20.30
2023-05-10T10:15:39.058Z,19.97
2023-05-10T10:20:42.360Z,19.38
2023-05-10T10:25:49.285Z,18.79
2023-05-10T10:30:56.295Z,19.07
2023-05-10T10:36:02.148Z,19.49
2023-05-10T10:41:11.433Z,19.38
2023-05-10T10:46:15.555Z,19.77
2023-05-10T10:51:18.665Z,19.41
2023-05-10T10:56:25.232Z,19.29
2023-05-10T11:01:35.282Z,19.38
2023-05-10T11:06:41.480Z,19.67
2023-05-10T11:11:56.120Z,19.28
2023-05-10T11:16:59.309Z,19.60
2023-05-10T11:22:15.536Z,19.55
2023-05-10T11:27:20.642Z,19.63
2023-05-10T11:32:24.108Z,19.54
2023-05-10T11:37:33.276Z,19.40
2023-05-10T11:42:39.097Z,19.39
2023-05-10T11:47:44.238Z,19.49
2023-05-10T11:52:47.399Z,19.30
2023-05-10T11:57:54.150Z,19.31
2023-05-10T12:02:57.173Z,19.56
2023-05-10T12:08:13.388Z,20.20
2023-05-10T12:13:17.683Z,19.84
2023-05-10T12:18:25.877Z,20.30
2023-05-10T12:23:28.752Z,20.29
2023-05-10T12:28:34.328Z,20.57
2023-05-10T12:33:42.684Z,20.41
2023-05-10T12:38:49.034Z,20.32
2023-05-10T12:43:53.613Z,20.34
2023-05-10T12:49:08.016Z,20.74
2023-05-10T12:54:12.357Z,20.83
2023-05-10T12:59:16.583Z,20.67
2023-05-10T13:04:19.504Z,20.97
2023-05-10T13:09:22.533Z,20.69
2023-05-10T13:14:26.961Z,21.31
2023-05-10T13:19:29.881Z,20.84
2023-05-10T13:24:32.848Z,21.37
2023-05-10T13:29:37.489Z,21.52
2023-05-10T13:34:43.361Z,21.76
2023-05-10T13:39:46.380Z,21.59
2023-05-10T13:44:50.774Z,22.01
2023-05-10T13:49:53.780Z,21.80
2023-05-10T13:54:56.997Z,21.80
2023-05-10T14:00:01.448Z,22.04
2023-05-10T14:05:11.221Z,21.99
2023-05-10T14:10:14.103Z,21.65
2023-05-10T14:15:18.655Z,21.13
2023-05-10T14:20:21.638Z,21.67
2023-05-10T14:25:25.306Z,21.42
2023-05-10T14:30:29.532Z,21.70
2023-05-10T14:35:32.990Z,21.68
2023-05-10T14:40:35.866Z,21.73
2023-05-10T14:45:40.035Z,21.28
2023-05-10T14:50:42.877Z,21.29
2023-05-10T14:55:45.624Z,20.93
2023-05-10T15:00:49.744Z,20.47
2023-05-10T15:05:54.030Z,20.70
2023-05-10T15:10:57.290Z,21.09
2023-05-10T15:16:02.048Z,21.75
2023-05-10T15:21:04.948Z,21.72
2023-05-10T15:26:07.841Z,21.84
2023-05-10T15:31:12.211Z,21.58
2023-05-10T15:36:15.159Z,21.44
2023-05-10T15:41:19.134Z,21.29
2023-05-10T15:46:23.871Z,21.00
2023-05-10T15:51:26.902Z,20.30
2023-05-10T15:56:29.815Z,19.11
2023-05-10T16:01:34.086Z,19.06
2023-05-10T16:06:38.204Z,19.47
2023-05-10T16:11:42.099Z,19.83
2023-05-10T16:16:47.629Z,20.06
2023-05-10T16:21:51.273Z,20.39
2023-05-10T16:26:54.476Z,20.54
2023-05-10T16:31:58.660Z,20.65
2023-05-10T16:37:01.417Z,20.33
2023-05-10T16:42:04.396Z,20.31
2023-05-10T16:47:08.747Z,20.03
2023-05-10T16:52:11.662Z,19.47
2023-05-10T16:57:14.605Z,19.60
2023-05-10T17:02:18.809Z,19.52
2023-05-10T17:07:26.132Z,19.83
2023-05-10T17:12:29.276Z,20.17
2023-05-10T17:17:34.299Z,19.53
2023-05-10T17:22:37.217Z,19.08
2023-05-10T17:27:40.450Z,18.22
2023-05-10T17:32:44.746Z,18.51
2023-05-10T17:37:47.749Z,18.17
2023-05-10T17:42:50.635Z,17.92
2023-05-10T17:47:55.011Z,17.94
2023-05-10T17:52:57.988Z,18.15
2023-05-10T17:58:00.998Z,17.63
2023-05-10T18:03:06.317Z,17.36
2023-05-10T18:08:09.762Z,18.05
2023-05-10T18:13:12.774Z,17.63
2023-05-10T18:18:17.648Z,17.47
2023-05-10T18:23:20.944Z,17.48
2023-05-10T18:28:24.437Z,17.40
2023-05-10T18:33:28.625Z,17.79
2023-05-10T18:38:31.808Z,17.27
2023-05-10T18:43:34.870Z,17.28
2023-05-10T18:48:39.264Z,17.26
2023-05-10T18:53:42.053Z,17.45
2023-05-10T18:58:45.504Z,17.21
2023-05-10T19:03:49.764Z,17.01
2023-05-10T19:08:52.675Z,16.86
2023-05-10T19:13:55.576Z,17.18
2023-05-10T19:19:01.214Z,16.64
2023-05-10T19:24:04.518Z,16.86
2023-05-10T19:29:07.718Z,16.63
2023-05-10T19:34:11.935Z,16.57
2023-05-10T19:39:14.822Z,16.79
2023-05-10T19:44:20.581Z,17.03
2023-05-10T19:49:26.481Z,16.54
2023-05-10T19:54:29.945Z,16.87
2023-05-10T19:59:32.760Z,16.54
2023-05-10T20:04:37.119Z,16.40
2023-05-10T20:09:39.992Z,16.48
2023-05-10T20:14:42.744Z,16.37
2023-05-10T20:19:46.925Z,16.37
2023-05-10T20:24:49.738Z,16.16
2023-05-10T20:29:53.159Z,16.13
2023-05-10T20:34:57.410Z,16.21
2023-05-10T20:40:00.235Z,15.98
2023-05-10T20:45:03.310Z,15.93
2023-05-10T20:50:08.708Z,16.34
2023-05-10T20:55:11.504Z,16.31
2023-05-10T21:00:15.597Z,15.96
2023-05-10T21:05:20.008Z,16.16
2023-05-10T21:10:22.831Z,15.84
2023-05-10T21:15:25.930Z,15.94
2023-05-10T21:20:32.384Z,16.10
2023-05-10T21:25:35.168Z,15.94
2023-05-10T21:30:37.880Z,16.03
2023-05-10T21:35:43.000Z,16.14
2023-05-10T21:40:46.163Z,16.05
2023-05-10T21:45:49.007Z,15.93
2023-05-10T21:50:53.260Z,15.70
2023-05-10T21:55:56.283Z,16.24
2023-05-10T22:00:59.134Z,15.93
2023-05-10T22:06:03.328Z,15.74
2023-05-10T22:11:06.192Z,15.67
2023-05-10T22:16:08.951Z,15.61
2023-05-10T22:21:13.083Z,15.53
2023-05-10T22:26:15.885Z,15.22
2023-05-10T22:31:18.741Z,15.35
2023-05-10T22:36:22.960Z,15.13
2023-05-10T22:41:26.293Z,15.01
2023-05-10T22:46:29.598Z,15.06
2023-05-10T22:51:33.857Z,14.93
2023-05-10T22:56:36.650Z,15.04
2023-05-10T23:01:39.497Z,15.41
2023-05-10T23:06:43.611Z,15.41
2023-05-10T23:11:46.415Z,15.40
2023-05-10T23:16:49.115Z,15.89
2023-05-10T23:21:53.200Z,15.55
2023-05-10T23:26:56.019Z,15.29
2023-05-10T23:31:58.796Z,15.27
2023-05-10T23:37:03.130Z,15.33
2023-05-10T23:42:06.417Z,15.23
2023-05-10T23:47:09.326Z,15.38
2023-05-10T23:52:13.982Z,15.44
2023-05-10T23:57:16.775Z,15.63
